sensor_id;sensor_type;location;lat;lon;timestamp;P1;durP1;ratioP1;P2;durP2;ratioP2
66721;SDS011;53633;49.932;10.884;2024-03-02T00:01:23;27.02;;;11.20;;
66721;SDS011;53633;49.932;10.884;2024-03-02T00:03:50;30.25;;;12.50;;
66721;SDS011;53633;49.932;10.884;2024-03-02T00:06:20;27.95;;;13.23;;
66721;SDS011;53633;49.932;10.884;2024-03-02T00:08:47;28.10;;;11.98;;
66721;SDS011;53633;49.932;10.884;2024-03-02T00:11:14;26.37;;;11.50;;
66721;SDS011;53633;49.932;10.884;2024-03-02T00:13:41;27.17;;;11.80;;
66721;SDS011;53633;49.932;10.884;2024-03-02T00:16:08;27.10;;;12.30;;
66721;SDS011;53633;49.932;10.884;2024-03-02T00:18:40;21.98;;;10.55;;
66721;SDS011;53633;49.932;10.884;2024-03-02T00:21:08;26.63;;;11.90;;
66721;SDS011;53633;49.932;10.884;2024-03-02T00:23:37;26.73;;;10.97;;
66721;SDS011;53633;49.932;10.884;2024-03-02T00:26:05;28.55;;;11.63;;
66721;SDS011;53633;49.932;10.884;2024-03-02T00:28:33;25.52;;;11.32;;
66721;SDS011;53633;49.932;10.884;2024-03-02T00:31:02;24.20;;;10.90;;
66721;SDS011;53633;49.932;10.884;2024-03-02T00:33:30;25.35;;;12.18;;
66721;SDS011;53633;49.932;10.884;2024-03-02T00:35:59;24.73;;;10.97;;
66721;SDS011;53633;49.932;10.884;2024-03-02T00:38:26;22.88;;;11.05;;
66721;SDS011;53633;49.932;10.884;2024-03-02T00:41:00;24.13;;;10.60;;
66721;SDS011;53633;49.932;10.884;2024-03-02T00:43:38;27.13;;;10.45;;
66721;SDS011;53633;49.932;10.884;2024-03-02T00:46:15;25.35;;;11.18;;
66721;SDS011;53633;49.932;10.884;2024-03-02T00:48:47;22.77;;;10.47;;
66721;SDS011;53633;49.932;10.884;2024-03-02T00:51:17;25.05;;;10.05;;
66721;SDS011;53633;49.932;10.884;2024-03-02T00:53:45;27.55;;;10.50;;
66721;SDS011;53633;49.932;10.884;2024-03-02T00:56:13;22.38;;;10.35;;
66721;SDS011;53633;49.932;10.884;2024-03-02T00:58:40;26.77;;;10.68;;
66721;SDS011;53633;49.932;10.884;2024-03-02T01:01:07;26.37;;;10.57;;
66721;SDS011;53633;49.932;10.884;2024-03-02T01:03:36;23.92;;;10.60;;
66721;SDS011;53633;49.932;10.884;2024-03-02T01:06:04;27.13;;;11.23;;
66721;SDS011;53633;49.932;10.884;2024-03-02T01:08:31;25.98;;;11.43;;
66721;SDS011;53633;49.932;10.884;2024-03-02T01:10:58;26.23;;;11.27;;
66721;SDS011;53633;49.932;10.884;2024-03-02T01:13:27;22.67;;;10.47;;
66721;SDS011;53633;49.932;10.884;2024-03-02T01:15:54;26.42;;;10.63;;
66721;SDS011;53633;49.932;10.884;2024-03-02T01:18:21;24.35;;;10.52;;
66721;SDS011;53633;49.932;10.884;2024-03-02T01:20:48;27.90;;;10.70;;
66721;SDS011;53633;49.932;10.884;2024-03-02T01:23:15;22.48;;;10.02;;
66721;SDS011;53633;49.932;10.884;2024-03-02T01:25:42;21.23;;;10.07;;
66721;SDS011;53633;49.932;10.884;2024-03-02T01:28:09;24.63;;;10.07;;
66721;SDS011;53633;49.932;10.884;2024-03-02T01:30:38;22.38;;;10.68;;
66721;SDS011;53633;49.932;10.884;2024-03-02T01:33:05;23.75;;;10.02;;
66721;SDS011;53633;49.932;10.884;2024-03-02T01:35:32;21.92;;;9.93;;
66721;SDS011;53633;49.932;10.884;2024-03-02T01:37:59;23.47;;;9.80;;
66721;SDS011;53633;49.932;10.884;2024-03-02T01:40:26;21.75;;;9.65;;
66721;SDS011;53633;49.932;10.884;2024-03-02T01:42:53;22.48;;;10.20;;
66721;SDS011;53633;49.932;10.884;2024-03-02T01:45:21;21.90;;;10.10;;
66721;SDS011;53633;49.932;10.884;2024-03-02T01:47:50;25.10;;;10.55;;
66721;SDS011;53633;49.932;10.884;2024-03-02T01:50:23;26.20;;;10.63;;
66721;SDS011;53633;49.932;10.884;2024-03-02T01:52:53;27.55;;;11.23;;
66721;SDS011;53633;49.932;10.884;2024-03-02T01:55:21;26.95;;;11.07;;
66721;SDS011;53633;49.932;10.884;2024-03-02T01:57:48;21.70;;;9.50;;
66721;SDS011;53633;49.932;10.884;2024-03-02T02:00:17;22.10;;;10.30;;
66721;SDS011;53633;49.932;10.884;2024-03-02T02:02:44;20.43;;;9.47;;
66721;SDS011;53633;49.932;10.884;2024-03-02T02:05:14;24.05;;;10.52;;
66721;SDS011;53633;49.932;10.884;2024-03-02T02:07:41;25.13;;;10.80;;
66721;SDS011;53633;49.932;10.884;2024-03-02T02:10:08;23.63;;;10.20;;
66721;SDS011;53633;49.932;10.884;2024-03-02T02:12:36;24.77;;;10.65;;
66721;SDS011;53633;49.932;10.884;2024-03-02T02:15:04;23.87;;;10.13;;
66721;SDS011;53633;49.932;10.884;2024-03-02T02:17:47;22.15;;;9.77;;
66721;SDS011;53633;49.932;10.884;2024-03-02T02:20:18;26.27;;;10.43;;
66721;SDS011;53633;49.932;10.884;2024-03-02T02:22:59;23.98;;;9.55;;
66721;SDS011;53633;49.932;10.884;2024-03-02T02:25:26;23.77;;;11.88;;
66721;SDS011;53633;49.932;10.884;2024-03-02T02:27:54;26.03;;;10.60;;
66721;SDS011;53633;49.932;10.884;2024-03-02T02:30:22;27.38;;;10.95;;
66721;SDS011;53633;49.932;10.884;2024-03-02T02:32:49;28.23;;;11.65;;
66721;SDS011;53633;49.932;10.884;2024-03-02T02:35:17;24.65;;;10.93;;
66721;SDS011;53633;49.932;10.884;2024-03-02T02:37:44;29.02;;;12.93;;
66721;SDS011;53633;49.932;10.884;2024-03-02T02:40:14;33.80;;;12.33;;
66721;SDS011;53633;49.932;10.884;2024-03-02T02:42:41;31.45;;;12.68;;
66721;SDS011;53633;49.932;10.884;2024-03-02T02:45:08;31.08;;;13.00;;
66721;SDS011;53633;49.932;10.884;2024-03-02T02:47:37;28.90;;;11.50;;
66721;SDS011;53633;49.932;10.884;2024-03-02T02:50:06;22.98;;;9.43;;
66721;SDS011;53633;49.932;10.884;2024-03-02T02:52:34;22.67;;;9.70;;
66721;SDS011;53633;49.932;10.884;2024-03-02T02:55:06;24.92;;;9.60;;
66721;SDS011;53633;49.932;10.884;2024-03-02T02:57:38;27.05;;;10.65;;
66721;SDS011;53633;49.932;10.884;2024-03-02T03:00:07;23.40;;;10.18;;
66721;SDS011;53633;49.932;10.884;2024-03-02T03:02:35;27.15;;;11.18;;
66721;SDS011;53633;49.932;10.884;2024-03-02T03:05:03;24.93;;;10.90;;
66721;SDS011;53633;49.932;10.884;2024-03-02T03:07:30;29.20;;;11.15;;
66721;SDS011;53633;49.932;10.884;2024-03-02T03:09:57;25.65;;;11.38;;
66721;SDS011;53633;49.932;10.884;2024-03-02T03:12:24;22.73;;;10.75;;
66721;SDS011;53633;49.932;10.884;2024-03-02T03:14:53;26.05;;;11.77;;
66721;SDS011;53633;49.932;10.884;2024-03-02T03:17:21;23.90;;;10.70;;
66721;SDS011;53633;49.932;10.884;2024-03-02T03:19:48;32.47;;;12.70;;
66721;SDS011;53633;49.932;10.884;2024-03-02T03:22:15;28.75;;;12.35;;
66721;SDS011;53633;49.932;10.884;2024-03-02T03:24:42;34.15;;;13.32;;
66721;SDS011;53633;49.932;10.884;2024-03-02T03:27:10;31.15;;;12.25;;
66721;SDS011;53633;49.932;10.884;2024-03-02T03:29:38;34.70;;;13.60;;
66721;SDS011;53633;49.932;10.884;2024-03-02T03:32:08;35.72;;;14.63;;
66721;SDS011;53633;49.932;10.884;2024-03-02T03:34:35;35.45;;;13.93;;
66721;SDS011;53633;49.932;10.884;2024-03-02T03:37:02;33.97;;;13.82;;
66721;SDS011;53633;49.932;10.884;2024-03-02T03:39:34;38.63;;;14.88;;
66721;SDS011;53633;49.932;10.884;2024-03-02T03:42:01;35.47;;;14.20;;
66721;SDS011;53633;49.932;10.884;2024-03-02T03:44:30;38.25;;;14.43;;
66721;SDS011;53633;49.932;10.884;2024-03-02T03:46:57;35.03;;;14.68;;
66721;SDS011;53633;49.932;10.884;2024-03-02T03:49:26;36.80;;;13.57;;
66721;SDS011;53633;49.932;10.884;2024-03-02T03:51:53;37.33;;;14.02;;
66721;SDS011;53633;49.932;10.884;2024-03-02T03:54:21;34.80;;;14.50;;
66721;SDS011;53633;49.932;10.884;2024-03-02T03:56:49;28.83;;;12.60;;
66721;SDS011;53633;49.932;10.884;2024-03-02T03:59:16;32.92;;;12.93;;
66721;SDS011;53633;49.932;10.884;2024-03-02T04:01:43;33.22;;;13.10;;
66721;SDS011;53633;49.932;10.884;2024-03-02T04:04:10;33.60;;;13.75;;
66721;SDS011;53633;49.932;10.884;2024-03-02T04:06:42;35.63;;;14.43;;
66721;SDS011;53633;49.932;10.884;2024-03-02T04:09:09;36.47;;;13.40;;
66721;SDS011;53633;49.932;10.884;2024-03-02T04:11:40;33.08;;;13.05;;
66721;SDS011;53633;49.932;10.884;2024-03-02T04:14:07;34.22;;;14.70;;
66721;SDS011;53633;49.932;10.884;2024-03-02T04:16:34;31.38;;;12.20;;
66721;SDS011;53633;49.932;10.884;2024-03-02T04:19:03;29.60;;;12.57;;
66721;SDS011;53633;49.932;10.884;2024-03-02T04:21:40;30.88;;;13.95;;
66721;SDS011;53633;49.932;10.884;2024-03-02T04:24:07;34.00;;;13.38;;
66721;SDS011;53633;49.932;10.884;2024-03-02T04:26:34;34.70;;;14.10;;
66721;SDS011;53633;49.932;10.884;2024-03-02T04:29:01;33.58;;;12.88;;
66721;SDS011;53633;49.932;10.884;2024-03-02T04:31:28;34.13;;;14.77;;
66721;SDS011;53633;49.932;10.884;2024-03-02T04:33:55;33.08;;;13.80;;
66721;SDS011;53633;49.932;10.884;2024-03-02T04:36:21;35.85;;;14.40;;
66721;SDS011;53633;49.932;10.884;2024-03-02T04:38:51;37.00;;;15.02;;
66721;SDS011;53633;49.932;10.884;2024-03-02T04:41:19;38.15;;;15.90;;
66721;SDS011;53633;49.932;10.884;2024-03-02T04:43:46;38.20;;;15.07;;
66721;SDS011;53633;49.932;10.884;2024-03-02T04:46:13;39.80;;;14.77;;
66721;SDS011;53633;49.932;10.884;2024-03-02T04:48:40;36.97;;;14.80;;
66721;SDS011;53633;49.932;10.884;2024-03-02T04:51:07;37.65;;;16.65;;
66721;SDS011;53633;49.932;10.884;2024-03-02T04:53:34;38.80;;;15.07;;
66721;SDS011;53633;49.932;10.884;2024-03-02T04:56:03;34.87;;;14.87;;
66721;SDS011;53633;49.932;10.884;2024-03-02T04:58:31;34.88;;;15.35;;
66721;SDS011;53633;49.932;10.884;2024-03-02T05:00:58;38.55;;;14.63;;
66721;SDS011;53633;49.932;10.884;2024-03-02T05:03:25;34.85;;;13.70;;
66721;SDS011;53633;49.932;10.884;2024-03-02T05:05:52;34.60;;;14.25;;
66721;SDS011;53633;49.932;10.884;2024-03-02T05:08:18;32.17;;;13.43;;
66721;SDS011;53633;49.932;10.884;2024-03-02T05:10:45;38.03;;;14.27;;
66721;SDS011;53633;49.932;10.884;2024-03-02T05:15:44;36.22;;;13.65;;
66721;SDS011;53633;49.932;10.884;2024-03-02T05:18:11;38.28;;;14.30;;
66721;SDS011;53633;49.932;10.884;2024-03-02T05:20:38;35.33;;;14.13;;
66721;SDS011;53633;49.932;10.884;2024-03-02T05:23:05;34.45;;;13.40;;
66721;SDS011;53633;49.932;10.884;2024-03-02T05:25:32;32.90;;;13.95;;
66721;SDS011;53633;49.932;10.884;2024-03-02T05:28:01;38.63;;;16.17;;
66721;SDS011;53633;49.932;10.884;2024-03-02T05:30:28;33.08;;;13.57;;
66721;SDS011;53633;49.932;10.884;2024-03-02T05:32:57;35.80;;;13.70;;
66721;SDS011;53633;49.932;10.884;2024-03-02T05:35:30;34.05;;;13.00;;
66721;SDS011;53633;49.932;10.884;2024-03-02T05:37:57;30.70;;;13.73;;
66721;SDS011;53633;49.932;10.884;2024-03-02T05:40:24;31.95;;;12.63;;
66721;SDS011;53633;49.932;10.884;2024-03-02T05:42:51;29.90;;;13.10;;
66721;SDS011;53633;49.932;10.884;2024-03-02T05:45:19;32.73;;;12.07;;
66721;SDS011;53633;49.932;10.884;2024-03-02T05:47:46;31.73;;;12.93;;
66721;SDS011;53633;49.932;10.884;2024-03-02T05:50:14;31.85;;;12.73;;
66721;SDS011;53633;49.932;10.884;2024-03-02T05:52:41;33.58;;;12.43;;
66721;SDS011;53633;49.932;10.884;2024-03-02T05:55:08;29.83;;;12.25;;
66721;SDS011;53633;49.932;10.884;2024-03-02T05:57:35;29.93;;;12.23;;
66721;SDS011;53633;49.932;10.884;2024-03-02T06:00:05;29.67;;;11.07;;
66721;SDS011;53633;49.932;10.884;2024-03-02T06:02:34;31.13;;;13.18;;
66721;SDS011;53633;49.932;10.884;2024-03-02T06:05:05;27.50;;;10.88;;
66721;SDS011;53633;49.932;10.884;2024-03-02T06:07:34;30.95;;;12.27;;
66721;SDS011;53633;49.932;10.884;2024-03-02T06:10:01;28.47;;;11.87;;
66721;SDS011;53633;49.932;10.884;2024-03-02T06:12:31;33.53;;;12.15;;
66721;SDS011;53633;49.932;10.884;2024-03-02T06:14:58;29.38;;;12.32;;
66721;SDS011;53633;49.932;10.884;2024-03-02T06:17:29;29.05;;;11.40;;
66721;SDS011;53633;49.932;10.884;2024-03-02T06:19:59;28.13;;;12.05;;
66721;SDS011;53633;49.932;10.884;2024-03-02T06:22:27;24.93;;;10.90;;
66721;SDS011;53633;49.932;10.884;2024-03-02T06:24:55;29.48;;;11.65;;
66721;SDS011;53633;49.932;10.884;2024-03-02T06:27:22;33.53;;;12.18;;
66721;SDS011;53633;49.932;10.884;2024-03-02T06:29:50;28.20;;;11.68;;
66721;SDS011;53633;49.932;10.884;2024-03-02T06:32:17;25.73;;;10.60;;
66721;SDS011;53633;49.932;10.884;2024-03-02T06:34:44;30.37;;;11.50;;
66721;SDS011;53633;49.932;10.884;2024-03-02T06:37:11;28.10;;;11.10;;
66721;SDS011;53633;49.932;10.884;2024-03-02T06:39:38;24.73;;;11.05;;
66721;SDS011;53633;49.932;10.884;2024-03-02T06:42:06;26.88;;;11.52;;
66721;SDS011;53633;49.932;10.884;2024-03-02T06:44:35;27.45;;;11.45;;
66721;SDS011;53633;49.932;10.884;2024-03-02T06:47:03;27.97;;;10.57;;
66721;SDS011;53633;49.932;10.884;2024-03-02T06:49:30;27.90;;;10.85;;
66721;SDS011;53633;49.932;10.884;2024-03-02T06:51:57;25.13;;;10.85;;
66721;SDS011;53633;49.932;10.884;2024-03-02T06:54:25;27.55;;;10.63;;
66721;SDS011;53633;49.932;10.884;2024-03-02T06:56:53;24.05;;;10.18;;
66721;SDS011;53633;49.932;10.884;2024-03-02T06:59:21;25.07;;;11.00;;
66721;SDS011;53633;49.932;10.884;2024-03-02T07:01:48;25.92;;;10.90;;
66721;SDS011;53633;49.932;10.884;2024-03-02T07:04:16;29.45;;;10.98;;
66721;SDS011;53633;49.932;10.884;2024-03-02T07:06:43;31.65;;;11.35;;
66721;SDS011;53633;49.932;10.884;2024-03-02T07:09:11;27.33;;;11.18;;
66721;SDS011;53633;49.932;10.884;2024-03-02T07:11:38;29.57;;;11.10;;
66721;SDS011;53633;49.932;10.884;2024-03-02T07:14:04;28.85;;;12.43;;
66721;SDS011;53633;49.932;10.884;2024-03-02T07:16:33;31.17;;;12.05;;
66721;SDS011;53633;49.932;10.884;2024-03-02T07:19:00;31.83;;;13.32;;
66721;SDS011;53633;49.932;10.884;2024-03-02T07:21:29;30.75;;;12.98;;
66721;SDS011;53633;49.932;10.884;2024-03-02T07:23:57;34.57;;;13.57;;
66721;SDS011;53633;49.932;10.884;2024-03-02T07:26:37;31.92;;;13.98;;
66721;SDS011;53633;49.932;10.884;2024-03-02T07:29:08;26.40;;;11.98;;
66721;SDS011;53633;49.932;10.884;2024-03-02T07:31:38;26.45;;;11.02;;
66721;SDS011;53633;49.932;10.884;2024-03-02T07:34:08;25.38;;;10.20;;
66721;SDS011;53633;49.932;10.884;2024-03-02T07:36:37;21.90;;;9.70;;
66721;SDS011;53633;49.932;10.884;2024-03-02T07:39:04;22.98;;;9.70;;
66721;SDS011;53633;49.932;10.884;2024-03-02T07:41:30;22.88;;;9.65;;
66721;SDS011;53633;49.932;10.884;2024-03-02T07:43:59;23.88;;;10.20;;
66721;SDS011;53633;49.932;10.884;2024-03-02T07:46:26;22.20;;;9.60;;
66721;SDS011;53633;49.932;10.884;2024-03-02T07:48:56;22.30;;;9.80;;
66721;SDS011;53633;49.932;10.884;2024-03-02T07:51:23;24.70;;;9.27;;
66721;SDS011;53633;49.932;10.884;2024-03-02T07:53:55;23.48;;;9.20;;
66721;SDS011;53633;49.932;10.884;2024-03-02T07:56:22;24.00;;;9.57;;
66721;SDS011;53633;49.932;10.884;2024-03-02T07:58:49;28.38;;;9.60;;
66721;SDS011;53633;49.932;10.884;2024-03-02T08:01:16;20.67;;;9.27;;
66721;SDS011;53633;49.932;10.884;2024-03-02T08:03:45;20.73;;;9.20;;
66721;SDS011;53633;49.932;10.884;2024-03-02T08:06:14;26.05;;;10.10;;
66721;SDS011;53633;49.932;10.884;2024-03-02T08:08:42;23.48;;;9.07;;
66721;SDS011;53633;49.932;10.884;2024-03-02T08:11:09;21.98;;;9.73;;
66721;SDS011;53633;49.932;10.884;2024-03-02T08:13:35;22.43;;;9.43;;
66721;SDS011;53633;49.932;10.884;2024-03-02T08:16:03;23.35;;;9.82;;
66721;SDS011;53633;49.932;10.884;2024-03-02T08:18:30;20.92;;;9.07;;
66721;SDS011;53633;49.932;10.884;2024-03-02T08:20:57;20.63;;;8.45;;
66721;SDS011;53633;49.932;10.884;2024-03-02T08:23:26;18.33;;;9.00;;
66721;SDS011;53633;49.932;10.884;2024-03-02T08:25:53;22.13;;;8.97;;
66721;SDS011;53633;49.932;10.884;2024-03-02T08:28:23;19.77;;;8.77;;
66721;SDS011;53633;49.932;10.884;2024-03-02T08:30:50;18.88;;;8.50;;
66721;SDS011;53633;49.932;10.884;2024-03-02T08:33:17;18.60;;;8.57;;
66721;SDS011;53633;49.932;10.884;2024-03-02T08:35:44;21.02;;;9.32;;
66721;SDS011;53633;49.932;10.884;2024-03-02T08:38:12;18.13;;;8.47;;
66721;SDS011;53633;49.932;10.884;2024-03-02T08:40:40;17.52;;;8.65;;
66721;SDS011;53633;49.932;10.884;2024-03-02T08:43:12;18.88;;;8.95;;
66721;SDS011;53633;49.932;10.884;2024-03-02T08:45:39;16.05;;;7.53;;
66721;SDS011;53633;49.932;10.884;2024-03-02T08:48:06;18.67;;;8.93;;
66721;SDS011;53633;49.932;10.884;2024-03-02T08:50:33;15.17;;;7.43;;
66721;SDS011;53633;49.932;10.884;2024-03-02T08:53:00;14.60;;;7.15;;
66721;SDS011;53633;49.932;10.884;2024-03-02T08:55:27;19.08;;;7.90;;
66721;SDS011;53633;49.932;10.884;2024-03-02T08:57:55;15.90;;;6.97;;
66721;SDS011;53633;49.932;10.884;2024-03-02T09:00:22;16.55;;;7.18;;
66721;SDS011;53633;49.932;10.884;2024-03-02T09:02:49;15.17;;;7.10;;
66721;SDS011;53633;49.932;10.884;2024-03-02T09:05:16;17.23;;;7.07;;
66721;SDS011;53633;49.932;10.884;2024-03-02T09:07:43;14.70;;;6.78;;
66721;SDS011;53633;49.932;10.884;2024-03-02T09:10:10;15.65;;;6.72;;
66721;SDS011;53633;49.932;10.884;2024-03-02T09:12:36;16.55;;;7.63;;
66721;SDS011;53633;49.932;10.884;2024-03-02T09:15:06;15.63;;;6.97;;
66721;SDS011;53633;49.932;10.884;2024-03-02T09:17:33;17.05;;;7.88;;
66721;SDS011;53633;49.932;10.884;2024-03-02T09:20:00;16.52;;;7.45;;
66721;SDS011;53633;49.932;10.884;2024-03-02T09:22:26;15.95;;;6.88;;
66721;SDS011;53633;49.932;10.884;2024-03-02T09:24:53;15.65;;;7.32;;
66721;SDS011;53633;49.932;10.884;2024-03-02T09:27:20;15.60;;;6.00;;
66721;SDS011;53633;49.932;10.884;2024-03-02T09:29:47;17.38;;;8.05;;
66721;SDS011;53633;49.932;10.884;2024-03-02T09:32:15;17.33;;;7.30;;
66721;SDS011;53633;49.932;10.884;2024-03-02T09:34:42;19.52;;;7.65;;
66721;SDS011;53633;49.932;10.884;2024-03-02T09:37:08;18.65;;;7.97;;
66721;SDS011;53633;49.932;10.884;2024-03-02T09:39:35;16.90;;;7.73;;
66721;SDS011;53633;49.932;10.884;2024-03-02T09:42:02;17.92;;;7.68;;
66721;SDS011;53633;49.932;10.884;2024-03-02T09:44:30;17.13;;;6.90;;
66721;SDS011;53633;49.932;10.884;2024-03-02T09:46:57;18.85;;;7.45;;
66721;SDS011;53633;49.932;10.884;2024-03-02T09:49:25;17.25;;;7.30;;
66721;SDS011;53633;49.932;10.884;2024-03-02T09:51:52;18.17;;;6.57;;
66721;SDS011;53633;49.932;10.884;2024-03-02T09:54:19;16.50;;;5.95;;
66721;SDS011;53633;49.932;10.884;2024-03-02T09:56:49;15.57;;;6.97;;
66721;SDS011;53633;49.932;10.884;2024-03-02T09:59:16;15.60;;;6.97;;
66721;SDS011;53633;49.932;10.884;2024-03-02T10:01:55;14.73;;;6.45;;
66721;SDS011;53633;49.932;10.884;2024-03-02T10:04:22;16.37;;;6.67;;
66721;SDS011;53633;49.932;10.884;2024-03-02T10:06:51;14.15;;;6.07;;
66721;SDS011;53633;49.932;10.884;2024-03-02T10:09:26;15.52;;;6.25;;
66721;SDS011;53633;49.932;10.884;2024-03-02T10:11:53;14.48;;;6.07;;
66721;SDS011;53633;49.932;10.884;2024-03-02T10:14:29;15.68;;;6.80;;
66721;SDS011;53633;49.932;10.884;2024-03-02T10:16:58;12.93;;;5.70;;
66721;SDS011;53633;49.932;10.884;2024-03-02T10:19:28;14.30;;;6.25;;
66721;SDS011;53633;49.932;10.884;2024-03-02T10:21:56;16.25;;;6.47;;
66721;SDS011;53633;49.932;10.884;2024-03-02T10:24:25;13.90;;;5.82;;
66721;SDS011;53633;49.932;10.884;2024-03-02T10:26:52;14.00;;;6.05;;
66721;SDS011;53633;49.932;10.884;2024-03-02T10:29:19;15.67;;;7.10;;
66721;SDS011;53633;49.932;10.884;2024-03-02T10:31:46;15.60;;;6.22;;
66721;SDS011;53633;49.932;10.884;2024-03-02T10:34:13;14.40;;;6.28;;
66721;SDS011;53633;49.932;10.884;2024-03-02T10:36:40;15.95;;;6.32;;
66721;SDS011;53633;49.932;10.884;2024-03-02T10:39:10;17.25;;;7.35;;
66721;SDS011;53633;49.932;10.884;2024-03-02T10:41:38;13.97;;;6.07;;
66721;SDS011;53633;49.932;10.884;2024-03-02T10:44:06;13.45;;;5.88;;
66721;SDS011;53633;49.932;10.884;2024-03-02T10:46:34;15.27;;;5.95;;
66721;SDS011;53633;49.932;10.884;2024-03-02T10:49:02;13.95;;;5.90;;
66721;SDS011;53633;49.932;10.884;2024-03-02T10:51:33;14.18;;;6.18;;
66721;SDS011;53633;49.932;10.884;2024-03-02T10:54:00;13.73;;;5.83;;
66721;SDS011;53633;49.932;10.884;2024-03-02T10:56:30;18.02;;;6.30;;
66721;SDS011;53633;49.932;10.884;2024-03-02T10:59:02;14.43;;;5.75;;
66721;SDS011;53633;49.932;10.884;2024-03-02T11:01:29;14.32;;;5.68;;
66721;SDS011;53633;49.932;10.884;2024-03-02T11:03:58;12.52;;;5.68;;
66721;SDS011;53633;49.932;10.884;2024-03-02T11:06:26;13.40;;;5.70;;
66721;SDS011;53633;49.932;10.884;2024-03-02T11:08:55;12.80;;;5.72;;
66721;SDS011;53633;49.932;10.884;2024-03-02T11:11:27;12.00;;;5.38;;
66721;SDS011;53633;49.932;10.884;2024-03-02T11:13:58;12.35;;;4.90;;
66721;SDS011;53633;49.932;10.884;2024-03-02T11:16:30;11.90;;;5.25;;
66721;SDS011;53633;49.932;10.884;2024-03-02T11:19:00;12.83;;;5.50;;
66721;SDS011;53633;49.932;10.884;2024-03-02T11:21:28;11.68;;;5.05;;
66721;SDS011;53633;49.932;10.884;2024-03-02T11:23:55;10.82;;;4.68;;
66721;SDS011;53633;49.932;10.884;2024-03-02T11:26:21;9.43;;;4.10;;
66721;SDS011;53633;49.932;10.884;2024-03-02T11:28:50;11.07;;;4.70;;
66721;SDS011;53633;49.932;10.884;2024-03-02T11:31:16;11.37;;;4.70;;
66721;SDS011;53633;49.932;10.884;2024-03-02T11:33:43;11.25;;;4.43;;
66721;SDS011;53633;49.932;10.884;2024-03-02T11:36:10;10.50;;;3.80;;
66721;SDS011;53633;49.932;10.884;2024-03-02T11:38:38;9.48;;;3.97;;
66721;SDS011;53633;49.932;10.884;2024-03-02T11:41:06;8.38;;;3.50;;
66721;SDS011;53633;49.932;10.884;2024-03-02T11:43:36;9.67;;;3.97;;
66721;SDS011;53633;49.932;10.884;2024-03-02T11:46:05;11.73;;;3.97;;
66721;SDS011;53633;49.932;10.884;2024-03-02T11:48:33;9.30;;;3.50;;
66721;SDS011;53633;49.932;10.884;2024-03-02T11:51:01;7.90;;;3.03;;
66721;SDS011;53633;49.932;10.884;2024-03-02T11:53:28;9.07;;;3.25;;
66721;SDS011;53633;49.932;10.884;2024-03-02T11:56:00;10.03;;;3.10;;
66721;SDS011;53633;49.932;10.884;2024-03-02T11:58:28;8.00;;;3.15;;
66721;SDS011;53633;49.932;10.884;2024-03-02T12:00:54;8.95;;;3.20;;
66721;SDS011;53633;49.932;10.884;2024-03-02T12:03:24;9.38;;;3.13;;
66721;SDS011;53633;49.932;10.884;2024-03-02T12:05:52;8.73;;;2.95;;
66721;SDS011;53633;49.932;10.884;2024-03-02T12:08:19;7.10;;;2.83;;
66721;SDS011;53633;49.932;10.884;2024-03-02T12:10:55;8.57;;;3.00;;
66721;SDS011;53633;49.932;10.884;2024-03-02T12:13:25;7.07;;;2.67;;
66721;SDS011;53633;49.932;10.884;2024-03-02T12:15:53;8.10;;;2.72;;
66721;SDS011;53633;49.932;10.884;2024-03-02T12:18:20;7.82;;;2.80;;
66721;SDS011;53633;49.932;10.884;2024-03-02T12:20:49;6.83;;;2.57;;
66721;SDS011;53633;49.932;10.884;2024-03-02T12:23:16;7.32;;;2.40;;
66721;SDS011;53633;49.932;10.884;2024-03-02T12:25:44;7.03;;;2.40;;
66721;SDS011;53633;49.932;10.884;2024-03-02T12:28:11;6.32;;;2.50;;
66721;SDS011;53633;49.932;10.884;2024-03-02T12:30:38;6.78;;;2.60;;
66721;SDS011;53633;49.932;10.884;2024-03-02T12:33:05;7.53;;;2.60;;
66721;SDS011;53633;49.932;10.884;2024-03-02T12:35:32;7.35;;;2.63;;
66721;SDS011;53633;49.932;10.884;2024-03-02T12:38:00;6.90;;;2.65;;
66721;SDS011;53633;49.932;10.884;2024-03-02T12:40:27;6.30;;;2.58;;
66721;SDS011;53633;49.932;10.884;2024-03-02T12:42:53;8.40;;;3.08;;
66721;SDS011;53633;49.932;10.884;2024-03-02T12:45:20;7.77;;;2.70;;
66721;SDS011;53633;49.932;10.884;2024-03-02T12:47:47;8.18;;;3.33;;
66721;SDS011;53633;49.932;10.884;2024-03-02T12:50:14;8.85;;;3.63;;
66721;SDS011;53633;49.932;10.884;2024-03-02T12:52:41;9.27;;;3.50;;
66721;SDS011;53633;49.932;10.884;2024-03-02T12:55:09;7.75;;;2.90;;
66721;SDS011;53633;49.932;10.884;2024-03-02T12:57:37;8.37;;;3.30;;
66721;SDS011;53633;49.932;10.884;2024-03-02T13:00:06;8.07;;;2.97;;
66721;SDS011;53633;49.932;10.884;2024-03-02T13:02:34;7.68;;;3.53;;
66721;SDS011;53633;49.932;10.884;2024-03-02T13:05:01;8.10;;;3.28;;
66721;SDS011;53633;49.932;10.884;2024-03-02T13:07:29;7.57;;;3.33;;
66721;SDS011;53633;49.932;10.884;2024-03-02T13:09:56;8.23;;;3.53;;
66721;SDS011;53633;49.932;10.884;2024-03-02T13:12:24;11.30;;;3.80;;
66721;SDS011;53633;49.932;10.884;2024-03-02T13:14:51;8.65;;;3.92;;
66721;SDS011;53633;49.932;10.884;2024-03-02T13:17:19;10.90;;;4.30;;
66721;SDS011;53633;49.932;10.884;2024-03-02T13:19:52;11.60;;;4.85;;
66721;SDS011;53633;49.932;10.884;2024-03-02T13:22:19;9.53;;;3.87;;
66721;SDS011;53633;49.932;10.884;2024-03-02T13:24:46;11.45;;;4.80;;
66721;SDS011;53633;49.932;10.884;2024-03-02T13:27:13;10.98;;;4.80;;
66721;SDS011;53633;49.932;10.884;2024-03-02T13:29:41;11.05;;;4.97;;
66721;SDS011;53633;49.932;10.884;2024-03-02T13:32:08;9.18;;;4.05;;
66721;SDS011;53633;49.932;10.884;2024-03-02T13:34:35;9.63;;;3.93;;
66721;SDS011;53633;49.932;10.884;2024-03-02T13:37:01;10.73;;;4.53;;
66721;SDS011;53633;49.932;10.884;2024-03-02T13:39:28;10.20;;;4.75;;
66721;SDS011;53633;49.932;10.884;2024-03-02T13:41:55;11.15;;;5.22;;
66721;SDS011;53633;49.932;10.884;2024-03-02T13:44:22;11.93;;;4.97;;
66721;SDS011;53633;49.932;10.884;2024-03-02T13:46:50;10.17;;;4.80;;
66721;SDS011;53633;49.932;10.884;2024-03-02T13:49:16;10.18;;;4.40;;
66721;SDS011;53633;49.932;10.884;2024-03-02T13:51:43;10.40;;;3.97;;
66721;SDS011;53633;49.932;10.884;2024-03-02T13:54:10;9.50;;;4.20;;
66721;SDS011;53633;49.932;10.884;2024-03-02T13:56:36;10.07;;;4.22;;
66721;SDS011;53633;49.932;10.884;2024-03-02T13:59:03;10.87;;;4.00;;
66721;SDS011;53633;49.932;10.884;2024-03-02T14:01:30;8.85;;;3.58;;
66721;SDS011;53633;49.932;10.884;2024-03-02T14:03:58;10.90;;;4.05;;
66721;SDS011;53633;49.932;10.884;2024-03-02T14:06:25;10.10;;;4.57;;
66721;SDS011;53633;49.932;10.884;2024-03-02T14:08:52;11.00;;;4.30;;
66721;SDS011;53633;49.932;10.884;2024-03-02T14:11:18;14.73;;;5.07;;
66721;SDS011;53633;49.932;10.884;2024-03-02T14:13:45;10.52;;;4.75;;
66721;SDS011;53633;49.932;10.884;2024-03-02T14:16:12;9.77;;;4.18;;
66721;SDS011;53633;49.932;10.884;2024-03-02T14:18:39;8.63;;;4.00;;
66721;SDS011;53633;49.932;10.884;2024-03-02T14:21:07;8.95;;;3.90;;
66721;SDS011;53633;49.932;10.884;2024-03-02T14:23:34;9.57;;;4.23;;